Time;durP1;ratioP1;P1;durP2;ratioP2;P2;SDS_P1;SDS_P2;PMS_P1;PMS_P2;Temp;Humidity;BMP_temperature;BMP_pressure;BME280_temperature;BME280_humidity;BME280_pressure;Samples;Min_cycle;Max_cycle;Signal;HPM_P1;HPM_P2
2020/12/26 00:02:11;;;;;;;0.40;0.40;;;;;;;1.60;68.51;99728.88;6186724;23;20152;-85
2020/12/26 00:05:27;;;;;;;0.40;0.40;;;;;;;1.82;67.70;99753.06;6213629;23;20169;-85
2020/12/26 00:15:52;;;;;;;0.40;0.40;;;;;;;1.62;68.22;99734.84;6187337;23;20183;-85
2020/12/26 00:22:28;;;;;;;0.40;0.40;;;;;;;1.59;68.50;99721.09;6163974;23;20176;-84
2020/12/26 00:25:29;;;;;;;0.40;0.40;;;;;;;1.75;68.55;99740.50;6151618;23;20162;-85
2020/12/26 00:28:27;;;;;;;0.40;0.40;;;;;;;1.59;69.66;99726.41;6150364;23;20154;-85
2020/12/26 00:31:35;;;;;;;0.40;0.40;;;;;;;1.52;69.43;99722.75;6149365;23;20523;-85
2020/12/26 00:34:54;;;;;;;0.40;0.40;;;;;;;1.48;69.35;99718.78;6123890;23;20225;-86
2020/12/26 00:37:53;;;;;;;0.30;0.30;;;;;;;1.54;70.18;99710.22;6122448;23;20155;-85
2020/12/26 00:41:23;;;;;;;0.40;0.40;;;;;;;1.61;70.20;99730.53;6111796;23;20178;-85
2020/12/26 00:44:24;;;;;;;0.40;0.40;;;;;;;1.47;70.74;99696.81;6098896;23;20205;-85
2020/12/26 00:47:26;;;;;;;0.40;0.40;;;;;;;1.54;70.88;99700.47;6099506;23;20179;-85
2020/12/26 00:54:00;;;;;;;0.40;0.40;;;;;;;1.57;69.78;99707.25;6030852;23;20161;-85
2020/12/26 00:56:59;;;;;;;0.40;0.40;;;;;;;1.53;70.91;99717.31;6100946;23;20171;-86
2020/12/26 01:11:51;;;;;;;0.40;0.40;;;;;;;1.48;69.88;99747.81;6104062;23;20218;-86
2020/12/26 01:20:06;;;;;;;0.30;0.30;;;;;;;1.51;70.06;99763.34;6022027;23;20200;-86
2020/12/26 01:23:49;;;;;;;0.40;0.40;;;;;;;1.46;68.80;99745.34;6038230;23;20172;-86
2020/12/26 01:28:24;;;;;;;0.40;0.40;;;;;;;1.27;67.78;99735.00;6036449;23;20203;-85
2020/12/26 01:36:41;;;;;;;0.40;0.40;;;;;;;1.26;68.66;99750.00;6001819;23;20238;-86
2020/12/26 01:45:24;;;;;;;0.30;0.30;;;;;;;1.07;69.13;99744.16;5982155;23;20187;-86
2020/12/26 01:56:08;;;;;;;0.30;0.30;;;;;;;0.92;70.30;99753.63;6232800;22;20222;-85
2020/12/26 02:02:56;;;;;;;0.40;0.40;;;;;;;0.76;71.11;99749.88;6232386;22;20178;-85
2020/12/26 02:06:02;;;;;;;0.30;0.30;;;;;;;0.77;71.12;99756.81;6271104;23;20171;-86
2020/12/26 02:09:25;;;;;;;0.37;0.37;;;;;;;0.72;71.08;99756.44;6273533;23;20202;-85
2020/12/26 02:12:48;;;;;;;0.40;0.40;;;;;;;0.75;70.23;99764.03;6258240;22;20155;-85
2020/12/26 02:16:13;;;;;;;0.40;0.40;;;;;;;0.76;69.24;99762.22;6236104;22;20147;-86
2020/12/26 02:19:36;;;;;;;0.40;0.40;;;;;;;0.67;68.25;99768.44;6271667;22;20147;-86
2020/12/26 02:23:22;;;;;;;0.30;0.30;;;;;;;0.59;67.66;99766.56;6272395;22;20166;-85
2020/12/26 02:26:31;;;;;;;0.33;0.33;;;;;;;0.62;68.09;99768.06;6224013;23;20183;-85
2020/12/26 02:30:07;;;;;;;0.40;0.40;;;;;;;0.62;66.45;99768.88;6257407;22;20182;-85
2020/12/26 02:33:11;;;;;;;0.40;0.40;;;;;;;0.76;65.88;99793.88;6270590;22;20227;-86
2020/12/26 02:36:54;;;;;;;0.40;0.40;;;;;;;0.63;64.69;99764.44;6269311;22;20163;-86
2020/12/26 02:39:51;;;;;;;0.40;0.40;;;;;;;0.63;64.93;99778.47;6183594;23;20217;-85
2020/12/26 02:47:14;;;;;;;0.33;0.33;;;;;;;0.62;64.59;99802.34;6212326;23;20157;-85
2020/12/26 02:50:49;;;;;;;0.40;0.40;;;;;;;0.71;63.78;99818.06;6216078;23;20212;-85
2020/12/26 02:54:03;;;;;;;0.40;0.40;;;;;;;0.72;65.00;99811.84;6156177;23;20232;-86
2020/12/26 02:57:37;;;;;;;0.30;0.30;;;;;;;0.69;63.95;99812.16;6213542;23;20196;-84
2020/12/26 03:05:20;;;;;;;0.40;0.40;;;;;;;0.89;63.15;99825.97;6222961;22;20215;-85
2020/12/26 03:08:56;;;;;;;0.50;0.50;;;;;;;0.85;64.28;99819.34;6274392;22;20171;-85
2020/12/26 03:12:33;;;;;;;0.40;0.40;;;;;;;0.71;65.41;99818.06;6209255;22;20237;-85
2020/12/26 03:16:43;;;;;;;0.30;0.30;;;;;;;0.73;66.38;99820.56;6274974;22;20195;-85
2020/12/26 03:20:23;;;;;;;0.40;0.40;;;;;;;0.66;67.46;99814.22;6276917;23;20159;-86
2020/12/26 03:24:01;;;;;;;0.40;0.40;;;;;;;0.78;66.54;99819.13;6181844;23;20229;-86
2020/12/26 03:27:51;;;;;;;0.43;0.43;;;;;;;0.63;67.82;99796.09;6215206;23;20153;-86
2020/12/26 03:31:50;;;;;;;0.40;0.40;;;;;;;0.81;67.23;99823.28;6215626;23;20181;-86
2020/12/26 03:39:45;;;;;;;0.40;0.40;;;;;;;0.60;67.97;99802.50;6215608;23;20180;-86
2020/12/26 03:43:17;;;;;;;0.40;0.40;;;;;;;0.73;68.72;99824.03;6213982;23;20685;-84
2020/12/26 03:47:18;;;;;;;0.50;0.50;;;;;;;0.68;68.04;99836.84;6155754;23;20231;-86
2020/12/26 03:50:25;;;;;;;0.40;0.40;;;;;;;0.61;68.66;99827.88;6072056;23;20161;-85
2020/12/26 03:53:42;;;;;;;0.40;0.40;;;;;;;0.58;69.88;99830.00;6136745;23;20184;-85
2020/12/26 03:57:02;;;;;;;0.40;0.40;;;;;;;0.60;70.52;99838.59;6135871;23;20232;-86
2020/12/26 04:00:35;;;;;;;0.40;0.40;;;;;;;0.54;70.42;99847.94;6159332;23;20153;-85
2020/12/26 04:04:23;;;;;;;0.40;0.40;;;;;;;0.47;71.31;99832.88;6152839;23;20181;-85
2020/12/26 04:08:16;;;;;;;0.33;0.33;;;;;;;0.62;69.65;99848.00;6141191;23;20170;-86
2020/12/26 04:21:22;;;;;;;0.40;0.40;;;;;;;0.55;70.62;99839.03;6233337;22;20207;-85
2020/12/26 04:24:27;;;;;;;0.40;0.40;;;;;;;0.59;71.52;99855.38;6194820;23;20156;-86
2020/12/26 04:27:46;;;;;;;0.30;0.30;;;;;;;0.50;71.96;99843.94;6231961;23;20151;-86
2020/12/26 04:31:32;;;;;;;0.40;0.40;;;;;;;0.56;71.85;99840.69;6242081;23;20172;-85
2020/12/26 04:34:54;;;;;;;0.30;0.30;;;;;;;0.41;72.40;99821.94;6244293;23;20156;-87
2020/12/26 04:38:21;;;;;;;0.40;0.40;;;;;;;0.48;71.43;99837.13;6239307;23;20182;-86
2020/12/26 04:42:14;;;;;;;0.40;0.40;;;;;;;0.38;71.14;99838.03;6241498;23;20152;-86
2020/12/26 04:49:46;;;;;;;0.30;0.30;;;;;;;0.40;70.33;99840.53;6244975;23;20223;-85
2020/12/26 04:54:07;;;;;;;0.50;0.50;;;;;;;0.42;69.80;99851.78;6218716;23;20251;-86
2020/12/26 05:02:48;;;;;;;0.47;0.47;;;;;;;0.27;71.04;99850.63;6244842;23;20215;-86
2020/12/26 05:06:08;;;;;;;0.50;0.50;;;;;;;0.15;70.84;99842.06;6227388;22;20190;-86
2020/12/26 05:10:03;;;;;;;0.40;0.40;;;;;;;0.25;70.47;99853.38;6242270;23;20190;-85
2020/12/26 05:13:25;;;;;;;0.40;0.40;;;;;;;0.23;69.87;99851.91;6215690;23;20159;-85
2020/12/26 05:49:39;;;;;;;0.40;0.40;;;;;;;0.24;66.86;99899.16;6263302;22;20195;-86
2020/12/26 06:03:01;;;;;;;0.40;0.40;;;;;;;0.69;69.18;99973.00;6257959;22;20191;-84
2020/12/26 06:11:21;;;;;;;0.40;0.40;;;;;;;0.66;70.13;99968.00;6227890;22;20186;-86
2020/12/26 06:14:45;;;;;;;0.37;0.37;;;;;;;0.48;70.17;99959.25;6241543;22;20164;-86
2020/12/26 06:18:04;;;;;;;0.30;0.30;;;;;;;0.39;71.06;99954.84;6220075;22;20207;-85
2020/12/26 06:25:23;;;;;;;0.40;0.40;;;;;;;0.25;72.43;99971.97;6241606;22;20148;-86
2020/12/26 06:32:06;;;;;;;0.43;0.43;;;;;;;0.16;73.07;99979.91;6236973;22;20219;-85
2020/12/26 07:31:49;;;;;;;0.40;0.40;;;;;;;-0.03;75.43;100060.69;6233243;22;20233;-85
2020/12/26 07:35:25;;;;;;;0.30;0.30;;;;;;;0.13;74.26;100073.28;6171368;23;20176;-87
2020/12/26 07:39:22;;;;;;;0.40;0.40;;;;;;;0.29;74.68;100078.75;6085061;23;20178;-85
2020/12/26 07:43:02;;;;;;;0.40;0.40;;;;;;;0.51;72.70;100079.41;6026278;23;20160;-85
2020/12/26 07:54:43;;;;;;;0.50;0.50;;;;;;;0.94;70.29;100074.31;5981676;24;20208;-86
2020/12/26 07:58:45;;;;;;;0.40;0.40;;;;;;;1.13;69.93;100105.06;6011269;23;20452;-86
2020/12/26 08:32:55;;;;;;;0.50;0.50;;;;;;;1.03;65.88;100136.78;6275227;22;20186;-85
2020/12/26 08:36:35;;;;;;;0.50;0.50;;;;;;;1.18;63.41;100145.88;6273361;22;20202;-85
2020/12/26 08:44:26;;;;;;;0.40;0.40;;;;;;;1.29;64.41;100158.03;6275402;22;20151;-86
2020/12/26 08:47:43;;;;;;;0.40;0.40;;;;;;;1.28;62.46;100140.53;6275670;22;20156;-85
2020/12/26 08:51:17;;;;;;;0.40;0.40;;;;;;;1.44;60.69;100145.19;6273487;22;20179;-85
2020/12/26 08:55:16;;;;;;;0.40;0.40;;;;;;;1.43;61.26;100159.34;6275202;22;20159;-85
2020/12/26 08:58:37;;;;;;;0.30;0.30;;;;;;;1.53;61.66;100160.97;6275373;22;20214;-84
2020/12/26 09:05:58;;;;;;;0.40;0.40;;;;;;;1.41;61.81;100154.22;6182858;23;20213;-84
2020/12/26 09:09:16;;;;;;;0.40;0.40;;;;;;;1.32;60.80;100158.56;6182820;23;20177;-85
2020/12/26 09:12:08;;;;;;;0.30;0.30;;;;;;;1.42;56.69;100170.88;6157941;23;20187;-85
2020/12/26 09:15:04;;;;;;;0.40;0.40;;;;;;;1.41;58.53;100180.63;6092456;23;20229;-85
2020/12/26 09:17:58;;;;;;;0.40;0.40;;;;;;;1.30;57.99;100165.81;6158022;23;20160;-85
2020/12/26 09:20:53;;;;;;;0.40;0.40;;;;;;;1.24;57.53;100165.56;6155020;23;20161;-85
2020/12/26 09:23:52;;;;;;;0.40;0.40;;;;;;;1.23;59.06;100171.81;6180898;23;20161;-85
2020/12/26 09:26:37;;;;;;;0.40;0.40;;;;;;;1.29;56.55;100189.72;6158678;23;20149;-85
2020/12/26 09:29:36;;;;;;;0.40;0.40;;;;;;;1.14;55.77;100189.38;6133379;23;20161;-85
2020/12/26 09:32:37;;;;;;;0.40;0.40;;;;;;;1.03;57.02;100171.06;6079426;23;20215;-85
2020/12/26 09:35:37;;;;;;;0.50;0.50;;;;;;;1.06;56.48;100175.25;6125926;23;20165;-85
2020/12/26 09:38:59;;;;;;;0.40;0.40;;;;;;;1.06;55.19;100176.09;6152022;23;20166;-85
2020/12/26 09:42:22;;;;;;;0.40;0.40;;;;;;;1.04;56.75;100185.09;6083061;23;20177;-85
2020/12/26 09:45:44;;;;;;;0.40;0.40;;;;;;;1.08;57.52;100183.84;6151714;23;20158;-85
2020/12/26 09:48:48;;;;;;;0.40;0.40;;;;;;;1.26;55.85;100200.59;6183892;23;20191;-84
2020/12/26 09:51:56;;;;;;;0.40;0.40;;;;;;;1.23;57.93;100200.84;6222411;23;20188;-85
2020/12/26 09:54:48;;;;;;;0.30;0.30;;;;;;;1.26;56.79;100200.59;6220474;23;20215;-85
2020/12/26 09:57:32;;;;;;;0.30;0.30;;;;;;;1.27;56.18;100197.78;6219994;23;20179;-85
2020/12/26 10:00:29;;;;;;;0.40;0.40;;;;;;;1.23;57.37;100201.69;6221720;23;20171;-86
2020/12/26 10:03:41;;;;;;;0.40;0.40;;;;;;;1.27;55.26;100207.50;6221801;23;20183;-85
2020/12/26 10:06:57;;;;;;;0.30;0.30;;;;;;;1.25;54.71;100202.41;6234389;23;20156;-84
2020/12/26 10:10:06;;;;;;;0.40;0.40;;;;;;;1.37;55.49;100203.00;6242681;23;20152;-84
2020/12/26 10:13:31;;;;;;;0.30;0.30;;;;;;;1.33;52.68;100185.81;6242828;23;20194;-83
2020/12/26 10:16:41;;;;;;;0.40;0.40;;;;;;;1.28;53.38;100177.50;6240295;23;20178;-85
2020/12/26 10:19:42;;;;;;;0.50;0.50;;;;;;;1.34;52.45;100161.06;6217633;23;20158;-85
2020/12/26 10:22:45;;;;;;;0.40;0.40;;;;;;;1.31;54.15;100167.47;6188559;23;20160;-84
2020/12/26 10:25:43;;;;;;;0.30;0.30;;;;;;;1.33;52.10;100177.88;6218115;23;20148;-85
2020/12/26 10:28:58;;;;;;;0.40;0.40;;;;;;;1.35;53.80;100183.03;6237435;23;20171;-86
2020/12/26 10:31:54;;;;;;;0.37;0.37;;;;;;;1.13;54.29;100176.31;6260861;23;20187;-84
2020/12/26 10:35:12;;;;;;;0.37;0.37;;;;;;;1.30;55.15;100181.66;6255672;22;20143;-85
2020/12/26 10:38:12;;;;;;;0.30;0.30;;;;;;;1.22;54.35;100183.34;6251590;22;20147;-85
2020/12/26 10:41:15;;;;;;;0.40;0.40;;;;;;;1.26;53.58;100196.09;6272041;22;20171;-85
2020/12/26 10:44:10;;;;;;;0.40;0.40;;;;;;;1.21;52.99;100182.53;6261625;22;20175;-85
2020/12/26 10:47:26;;;;;;;0.50;0.50;;;;;;;1.17;52.88;100180.31;6272218;22;20189;-85
2020/12/26 10:50:21;;;;;;;0.40;0.40;;;;;;;1.24;50.50;100184.88;6269640;22;20151;-85
2020/12/26 10:54:05;;;;;;;0.40;0.40;;;;;;;1.24;53.91;100186.69;6272042;22;20155;-84
2020/12/26 11:01:15;;;;;;;0.40;0.40;;;;;;;1.51;50.99;100175.28;6273573;22;20226;-85
2020/12/26 11:04:47;;;;;;;0.40;0.40;;;;;;;1.62;50.11;100178.56;6272657;22;20157;-86
2020/12/26 11:07:50;;;;;;;0.40;0.40;;;;;;;1.66;52.36;100184.38;6275693;22;20219;-85
2020/12/26 11:10:55;;;;;;;0.40;0.40;;;;;;;1.62;51.36;100170.63;6274377;23;20175;-85
2020/12/26 11:14:07;;;;;;;0.40;0.40;;;;;;;1.52;49.84;100158.47;6250240;23;20171;-85
2020/12/26 11:17:10;;;;;;;0.40;0.40;;;;;;;1.61;47.85;100173.41;6237090;23;20175;-86
2020/12/26 11:20:37;;;;;;;0.30;0.30;;;;;;;1.61;48.31;100158.41;6255102;22;20172;-85
2020/12/26 11:23:44;;;;;;;0.40;0.40;;;;;;;1.93;47.23;100165.81;6267898;22;20163;-85
2020/12/26 11:26:56;;;;;;;0.40;0.40;;;;;;;1.80;48.19;100154.78;6255217;22;20152;-84
2020/12/26 11:29:40;;;;;;;0.40;0.40;;;;;;;2.01;47.13;100144.72;6247850;23;20155;-85
2020/12/26 11:32:57;;;;;;;0.40;0.40;;;;;;;2.02;47.29;100164.06;6249512;22;20209;-85
2020/12/26 11:35:47;;;;;;;0.40;0.40;;;;;;;2.07;46.57;100151.22;6260943;22;20151;-85
2020/12/26 11:39:32;;;;;;;0.30;0.30;;;;;;;2.09;48.26;100157.19;6245629;22;20159;-85
2020/12/26 11:42:31;;;;;;;0.40;0.40;;;;;;;2.22;49.14;100147.06;6248529;22;20171;-85
2020/12/26 11:45:17;;;;;;;0.40;0.40;;;;;;;2.22;47.56;100155.81;6275284;22;20140;-85
2020/12/26 11:48:28;;;;;;;0.40;0.40;;;;;;;2.21;46.57;100153.31;6239099;22;20166;-85
2020/12/26 11:51:39;;;;;;;0.40;0.40;;;;;;;2.38;47.71;100144.53;6274938;22;20242;-84
2020/12/26 11:55:35;;;;;;;0.40;0.40;;;;;;;2.60;47.03;100141.38;6275692;22;20147;-85
2020/12/26 11:58:44;;;;;;;0.40;0.40;;;;;;;2.38;46.29;100143.72;6275874;22;20200;-85
2020/12/26 12:02:08;;;;;;;0.30;0.30;;;;;;;2.10;47.34;100127.94;6255932;22;20147;-85
2020/12/26 12:09:03;;;;;;;0.30;0.30;;;;;;;2.08;48.98;100114.06;6275631;22;20139;-86
2020/12/26 12:12:00;;;;;;;0.30;0.30;;;;;;;1.96;49.16;100107.34;6242244;23;20206;-85
2020/12/26 12:15:32;;;;;;;0.40;0.40;;;;;;;1.72;49.71;100112.44;6272719;22;20174;-85
2020/12/26 12:19:28;;;;;;;0.40;0.40;;;;;;;1.97;51.49;100113.47;6272741;22;20206;-85
2020/12/26 12:22:37;;;;;;;0.40;0.40;;;;;;;1.98;50.71;100105.41;6255354;22;20155;-85
2020/12/26 12:26:04;;;;;;;0.40;0.40;;;;;;;2.15;50.47;100107.19;6246390;22;20182;-85
2020/12/26 12:29:32;;;;;;;0.40;0.40;;;;;;;2.20;51.55;100106.72;6274688;22;20151;-85
2020/12/26 12:32:43;;;;;;;0.40;0.40;;;;;;;2.09;53.02;100097.25;6266681;22;20175;-85
2020/12/26 12:36:03;;;;;;;0.40;0.40;;;;;;;2.09;52.55;100093.75;6158670;23;20176;-85
2020/12/26 12:39:50;;;;;;;0.40;0.40;;;;;;;1.97;52.40;100100.25;6183129;23;20229;-85
2020/12/26 12:43:10;;;;;;;0.30;0.30;;;;;;;1.89;53.63;100102.84;6182933;23;20164;-86
2020/12/26 12:46:40;;;;;;;0.40;0.40;;;;;;;1.86;52.03;100116.38;6178113;23;20172;-85
2020/12/26 12:50:27;;;;;;;0.40;0.40;;;;;;;1.63;53.69;100090.38;6183727;23;20163;-85
2020/12/26 12:53:42;;;;;;;0.37;0.37;;;;;;;1.71;53.78;100108.97;6182807;23;20169;-85
2020/12/26 12:57:25;;;;;;;0.30;0.30;;;;;;;1.66;53.70;100107.75;6183033;23;20193;-85
2020/12/26 13:00:36;;;;;;;0.40;0.40;;;;;;;1.72;54.47;100110.66;6183806;23;20160;-85
2020/12/26 13:03:56;;;;;;;0.40;0.40;;;;;;;1.88;54.61;100122.31;6181215;23;20181;-85
2020/12/26 13:06:54;;;;;;;0.40;0.40;;;;;;;1.92;53.78;100116.56;6167887;23;20157;-85
2020/12/26 13:10:17;;;;;;;0.40;0.40;;;;;;;2.00;53.57;100124.59;6157671;23;20157;-85
2020/12/26 13:13:22;;;;;;;0.40;0.40;;;;;;;2.04;52.51;100111.91;6206343;23;20160;-85
2020/12/26 13:16:37;;;;;;;0.40;0.40;;;;;;;2.07;54.15;100125.63;6183338;23;20154;-85
2020/12/26 13:19:56;;;;;;;0.30;0.30;;;;;;;2.05;53.82;100130.22;6162337;23;20169;-86
2020/12/26 13:24:25;;;;;;;0.40;0.40;;;;;;;1.95;55.72;100112.81;6124052;23;20248;-85
